Time;durP1;ratioP1;P1;durP2;ratioP2;P2;SDS_P1;SDS_P2;PMS_P1;PMS_P2;Temp;Humidity;BMP_temperature;BMP_pressure;BME280_temperature;BME280_humidity;BME280_pressure;Samples;Min_cycle;Max_cycle;Signal;HPM_P1;HPM_P2
2022/10/18 00:02:15;;;;;;;;;;;;;;;19.93;64.30;101167.06;4977432;28;19918;-62
2022/10/18 00:04:40;;;;;;;;;;;;;;;19.85;64.79;101164.75;4977670;28;19918;-63
2022/10/18 00:07:05;;;;;;;;;;;;;;;19.89;64.23;101163.69;4977440;28;19957;-62
2022/10/18 00:09:30;;;;;;;;;;;;;;;19.66;65.37;101163.91;4976439;28;19922;-62
2022/10/18 00:11:56;;;;;;;;;;;;;;;19.64;65.36;101160.47;4977360;28;19914;-62
2022/10/18 00:14:21;;;;;;;;;;;;;;;19.59;65.40;101163.31;4977325;28;19968;-62
2022/10/18 00:16:47;;;;;;;;;;;;;;;19.56;65.54;101159.94;4974592;28;19925;-62
2022/10/18 00:19:12;;;;;;;;;;;;;;;19.43;66.14;101165.81;4976102;28;19928;-62
2022/10/18 00:21:37;;;;;;;;;;;;;;;19.71;65.18;101167.25;4977690;28;19926;-61
2022/10/18 00:24:03;;;;;;;;;;;;;;;19.45;66.01;101171.94;4977220;28;19918;-61
2022/10/18 00:26:29;;;;;;;;;;;;;;;19.71;65.67;101177.91;4967165;28;19919;-61
2022/10/18 00:28:56;;;;;;;;;;;;;;;19.56;65.98;101179.44;4957498;28;19925;-61
2022/10/18 00:31:23;;;;;;;;;;;;;;;20.46;62.87;101174.22;4974291;28;20013;-62
2022/10/18 00:33:50;;;;;;;;;;;;;;;19.79;64.84;101175.75;4976637;28;19936;-62
2022/10/18 00:36:15;;;;;;;;;;;;;;;19.63;65.42;101185.41;4976570;28;19921;-61
2022/10/18 00:38:41;;;;;;;;;;;;;;;19.57;65.27;101186.50;4974610;28;19924;-62
2022/10/18 00:41:07;;;;;;;;;;;;;;;19.54;65.30;101181.31;4976811;28;19957;-62
2022/10/18 00:43:49;;;;;;;;;;;;;;;19.51;65.42;101194.78;4975741;28;19961;-61
2022/10/18 00:46:14;;;;;;;;;;;;;;;19.44;65.57;101191.53;4976501;28;19929;-62
2022/10/18 00:48:39;;;;;;;;;;;;;;;19.34;66.23;101187.53;4976586;28;19925;-62
2022/10/18 00:51:05;;;;;;;;;;;;;;;19.38;66.07;101188.28;4976653;28;19988;-62
2022/10/18 00:53:30;;;;;;;;;;;;;;;19.36;66.28;101187.50;4976605;28;19932;-62
2022/10/18 00:55:56;;;;;;;;;;;;;;;19.73;65.58;101184.00;4976487;28;19918;-62
2022/10/18 00:58:21;;;;;;;;;;;;;;;19.30;66.56;101185.09;4976136;28;20021;-62
2022/10/18 01:00:46;;;;;;;;;;;;;;;19.32;66.38;101181.44;4975285;28;20008;-62
2022/10/18 01:03:12;;;;;;;;;;;;;;;19.28;66.29;101174.50;4975614;28;20370;-62
2022/10/18 01:05:40;;;;;;;;;;;;;;;19.18;66.85;101182.03;4976084;28;19914;-62
2022/10/18 01:08:24;;;;;;;;;;;;;;;19.84;64.84;101180.84;4975776;28;19914;-62
2022/10/18 01:10:50;;;;;;;;;;;;;;;19.42;65.83;101179.19;4975156;28;19965;-63
2022/10/18 01:13:38;;;;;;;;;;;;;;;19.17;67.12;101182.97;4976758;28;19965;-64
2022/10/18 01:16:06;;;;;;;;;;;;;;;19.11;67.11;101180.59;4975685;28;19925;-63
2022/10/18 01:18:48;;;;;;;;;;;;;;;19.17;66.80;101171.47;4976075;28;19949;-63
2022/10/18 01:21:46;;;;;;;;;;;;;;;19.09;67.18;101168.28;4975000;28;20000;-63
2022/10/18 01:24:14;;;;;;;;;;;;;;;19.08;67.28;101166.56;4953985;28;20391;-63
2022/10/18 01:26:57;;;;;;;;;;;;;;;19.14;67.17;101160.94;4974001;28;19925;-63
2022/10/18 01:29:42;;;;;;;;;;;;;;;19.09;67.69;101170.94;4975941;28;19936;-63
2022/10/18 01:32:17;;;;;;;;;;;;;;;19.15;67.27;101182.19;4975010;28;19914;-63
2022/10/18 01:34:44;;;;;;;;;;;;;;;19.16;66.99;101185.72;4969357;28;20448;-62
2022/10/18 01:37:13;;;;;;;;;;;;;;;19.09;67.65;101184.25;4974487;28;20140;-62
2022/10/18 01:39:40;;;;;;;;;;;;;;;19.05;67.60;101164.03;4975496;28;19914;-62
2022/10/18 01:42:08;;;;;;;;;;;;;;;19.05;67.76;101172.00;4972892;28;19985;-62
2022/10/18 01:44:35;;;;;;;;;;;;;;;19.05;67.93;101166.69;4975551;28;19922;-62
2022/10/18 01:47:02;;;;;;;;;;;;;;;19.13;67.82;101173.41;4974607;28;19928;-62
2022/10/18 01:49:28;;;;;;;;;;;;;;;19.81;65.90;101167.66;4974096;28;19940;-63
2022/10/18 01:51:53;;;;;;;;;;;;;;;19.52;66.45;101179.66;4975642;28;20424;-64
2022/10/18 01:54:23;;;;;;;;;;;;;;;19.35;67.23;101175.97;4975487;28;19918;-63
2022/10/18 01:57:11;;;;;;;;;;;;;;;19.33;67.44;101174.31;4975866;28;19914;-62
2022/10/18 01:59:55;;;;;;;;;;;;;;;19.43;66.93;101171.16;4975386;28;20267;-62
2022/10/18 02:02:23;;;;;;;;;;;;;;;19.55;66.81;101166.16;4975635;28;19968;-62
2022/10/18 02:04:57;;;;;;;;;;;;;;;19.37;67.22;101165.22;4974327;28;20008;-62
2022/10/18 02:07:29;;;;;;;;;;;;;;;19.32;67.63;101168.13;4975094;28;19925;-62
2022/10/18 02:10:07;;;;;;;;;;;;;;;19.30;68.00;101155.78;4974579;28;19922;-62
2022/10/18 02:12:33;;;;;;;;;;;;;;;19.42;67.72;101160.56;4955870;28;19961;-62
2022/10/18 02:15:00;;;;;;;;;;;;;;;19.55;67.37;101168.84;4956273;29;19922;-62
2022/10/18 02:17:27;;;;;;;;;;;;;;;19.60;67.23;101174.84;4958595;28;19977;-62
2022/10/18 02:19:54;;;;;;;;;;;;;;;19.62;67.35;101183.66;4975556;28;19968;-62
2022/10/18 02:22:21;;;;;;;;;;;;;;;19.49;68.26;101185.13;4975271;28;19921;-62
2022/10/18 02:24:51;;;;;;;;;;;;;;;19.62;67.72;101173.84;4974221;28;20033;-62
2022/10/18 02:27:17;;;;;;;;;;;;;;;19.65;67.64;101172.84;4975065;28;19914;-62
2022/10/18 02:29:43;;;;;;;;;;;;;;;19.60;68.08;101175.69;4975544;28;19965;-62
2022/10/18 02:32:12;;;;;;;;;;;;;;;19.56;68.83;101184.78;4974029;28;20301;-62
2022/10/18 02:34:40;;;;;;;;;;;;;;;19.65;68.42;101189.69;4975208;28;19914;-62
2022/10/18 02:37:06;;;;;;;;;;;;;;;19.59;68.78;101181.97;4974326;28;19914;-62
2022/10/18 02:39:34;;;;;;;;;;;;;;;20.35;66.02;101196.13;4971382;28;19922;-61
2022/10/18 02:41:59;;;;;;;;;;;;;;;20.31;66.49;101197.22;4971328;28;19965;-62
2022/10/18 02:44:25;;;;;;;;;;;;;;;20.45;65.53;101199.19;4974217;28;20436;-62
2022/10/18 02:46:51;;;;;;;;;;;;;;;20.16;65.94;101181.97;4973537;28;19918;-62
2022/10/18 02:49:16;;;;;;;;;;;;;;;20.02;66.38;101189.75;4975066;28;20008;-62
2022/10/18 02:51:41;;;;;;;;;;;;;;;20.04;66.39;101180.75;4982155;28;19929;-63
2022/10/18 02:54:07;;;;;;;;;;;;;;;20.04;66.34;101187.91;4973890;28;19925;-62
2022/10/18 02:56:33;;;;;;;;;;;;;;;19.92;66.87;101198.22;4973579;28;19918;-62
2022/10/18 02:58:58;;;;;;;;;;;;;;;19.83;67.48;101190.66;4974036;28;19929;-62
2022/10/18 03:01:23;;;;;;;;;;;;;;;19.99;67.09;101181.91;4974899;28;19914;-62
2022/10/18 03:03:49;;;;;;;;;;;;;;;19.90;67.11;101196.53;4974082;28;19922;-62
2022/10/18 03:06:14;;;;;;;;;;;;;;;19.64;68.60;101198.66;4974581;28;20362;-62
2022/10/18 03:08:39;;;;;;;;;;;;;;;19.71;68.33;101209.00;4973067;28;20301;-62
2022/10/18 03:11:05;;;;;;;;;;;;;;;19.77;67.88;101214.06;4974647;28;19918;-62
2022/10/18 03:13:31;;;;;;;;;;;;;;;19.70;68.62;101210.81;4973485;28;20313;-62
2022/10/18 03:15:56;;;;;;;;;;;;;;;19.68;68.67;101204.69;4972636;28;19922;-62
2022/10/18 03:18:21;;;;;;;;;;;;;;;19.60;68.92;101212.16;4973962;28;19929;-62
2022/10/18 03:20:46;;;;;;;;;;;;;;;19.53;69.63;101205.38;4974682;28;19925;-62
2022/10/18 03:23:12;;;;;;;;;;;;;;;19.73;68.45;101201.81;4972837;28;19918;-62
2022/10/18 03:25:37;;;;;;;;;;;;;;;19.77;68.07;101204.25;4974394;28;19925;-62
2022/10/18 03:28:02;;;;;;;;;;;;;;;19.81;67.88;101221.84;4973970;28;20440;-63
2022/10/18 03:30:28;;;;;;;;;;;;;;;20.33;66.34;101214.00;4974809;28;19914;-62
2022/10/18 03:32:53;;;;;;;;;;;;;;;19.91;67.41;101216.97;4973718;28;20372;-62
2022/10/18 03:35:18;;;;;;;;;;;;;;;19.84;67.60;101211.03;4975808;28;19922;-62
2022/10/18 03:37:44;;;;;;;;;;;;;;;19.82;67.61;101207.56;4975724;28;19924;-62
2022/10/18 03:40:09;;;;;;;;;;;;;;;19.74;68.25;101222.19;4977454;28;19918;-62
2022/10/18 03:42:34;;;;;;;;;;;;;;;19.80;67.82;101228.13;4976450;28;19953;-62
2022/10/18 03:45:00;;;;;;;;;;;;;;;19.66;68.40;101236.75;4974587;28;19929;-63
2022/10/18 03:47:25;;;;;;;;;;;;;;;19.72;68.12;101235.63;4980426;28;19922;-61
2022/10/18 03:49:50;;;;;;;;;;;;;;;19.58;68.75;101238.00;4977488;28;20412;-61
2022/10/18 03:52:16;;;;;;;;;;;;;;;19.52;68.93;101246.28;4975709;28;19964;-63
2022/10/18 03:54:41;;;;;;;;;;;;;;;19.56;68.57;101232.75;4957038;28;19930;-63
2022/10/18 03:57:06;;;;;;;;;;;;;;;19.67;68.10;101229.63;4975009;28;19922;-63
2022/10/18 03:59:32;;;;;;;;;;;;;;;19.66;68.16;101212.75;4977463;28;19926;-63
2022/10/18 04:01:57;;;;;;;;;;;;;;;19.72;67.78;101221.44;4975891;28;20390;-62
2022/10/18 04:04:22;;;;;;;;;;;;;;;19.74;67.64;101241.72;4974416;28;19936;-62
2022/10/18 04:06:48;;;;;;;;;;;;;;;19.95;66.90;101239.88;4977163;28;19918;-63
2022/10/18 04:09:13;;;;;;;;;;;;;;;19.68;68.08;101256.22;4977393;28;19926;-62
2022/10/18 04:11:39;;;;;;;;;;;;;;;19.63;67.98;101255.56;4977386;28;19922;-62
2022/10/18 04:14:04;;;;;;;;;;;;;;;19.62;67.81;101256.47;4977468;28;19918;-62
2022/10/18 04:16:29;;;;;;;;;;;;;;;19.63;67.97;101260.91;4976222;28;19965;-62
2022/10/18 04:18:55;;;;;;;;;;;;;;;19.67;67.79;101262.50;4977328;28;19921;-62
2022/10/18 04:21:20;;;;;;;;;;;;;;;19.68;67.56;101250.03;4975072;28;20293;-62
2022/10/18 04:23:49;;;;;;;;;;;;;;;19.69;67.42;101252.59;4975938;28;19922;-62
2022/10/18 04:26:15;;;;;;;;;;;;;;;19.75;67.17;101231.91;4977631;28;19932;-61
2022/10/18 04:28:41;;;;;;;;;;;;;;;19.76;67.03;101239.00;4976434;28;19945;-62
2022/10/18 04:31:06;;;;;;;;;;;;;;;19.73;66.91;101240.00;4977055;28;19913;-63
2022/10/18 04:33:31;;;;;;;;;;;;;;;19.63;67.33;101234.25;4976104;28;20358;-62
2022/10/18 04:35:56;;;;;;;;;;;;;;;19.62;67.51;101255.63;4976407;28;20052;-62
2022/10/18 04:38:22;;;;;;;;;;;;;;;19.58;67.49;101262.84;4976129;28;19961;-62
2022/10/18 04:40:48;;;;;;;;;;;;;;;19.54;67.91;101266.59;4976958;28;19922;-62
2022/10/18 04:43:13;;;;;;;;;;;;;;;19.52;68.00;101273.81;4976795;28;19914;-62
2022/10/18 04:45:39;;;;;;;;;;;;;;;19.59;67.46;101259.28;4972748;28;19925;-61
2022/10/18 04:48:04;;;;;;;;;;;;;;;19.57;67.56;101270.94;4974018;28;19922;-62
2022/10/18 04:50:29;;;;;;;;;;;;;;;20.17;65.59;101271.72;4975444;28;19922;-63
2022/10/18 04:52:55;;;;;;;;;;;;;;;19.78;67.40;101271.78;4976284;28;19918;-63
2022/10/18 04:55:20;;;;;;;;;;;;;;;19.54;67.77;101271.94;4973636;28;19922;-62
2022/10/18 04:57:45;;;;;;;;;;;;;;;19.50;67.73;101265.00;4976442;28;19918;-63
2022/10/18 05:00:11;;;;;;;;;;;;;;;19.46;67.67;101258.06;4976136;28;19914;-63
2022/10/18 05:02:36;;;;;;;;;;;;;;;19.43;67.59;101264.44;4975571;28;19933;-62
2022/10/18 05:05:02;;;;;;;;;;;;;;;19.79;66.63;101271.72;4974568;28;19922;-63
2022/10/18 05:07:27;;;;;;;;;;;;;;;20.00;65.63;101279.66;4976390;28;19914;-63
2022/10/18 05:09:52;;;;;;;;;;;;;;;20.00;65.84;101275.19;4976234;28;19918;-63
2022/10/18 05:12:18;;;;;;;;;;;;;;;19.58;67.21;101275.31;4976457;28;19918;-62
2022/10/18 05:14:43;;;;;;;;;;;;;;;19.33;67.69;101279.06;4976369;28;19918;-63
2022/10/18 05:17:08;;;;;;;;;;;;;;;19.31;67.92;101259.66;4976139;28;19914;-62
2022/10/18 05:19:34;;;;;;;;;;;;;;;19.28;67.79;101267.75;4973629;28;19922;-63
2022/10/18 05:21:59;;;;;;;;;;;;;;;19.25;68.12;101278.53;4976142;28;19918;-62
2022/10/18 05:24:24;;;;;;;;;;;;;;;19.25;67.79;101281.22;4975953;28;19925;-64
2022/10/18 05:26:50;;;;;;;;;;;;;;;19.22;68.13;101281.34;4970678;28;19981;-63
2022/10/18 05:29:15;;;;;;;;;;;;;;;19.18;68.25;101287.72;4974952;28;20020;-62
2022/10/18 05:31:40;;;;;;;;;;;;;;;19.12;68.62;101269.38;4973583;28;19933;-62
2022/10/18 05:34:06;;;;;;;;;;;;;;;19.33;67.64;101256.91;4974569;28;19922;-62
2022/10/18 05:36:31;;;;;;;;;;;;;;;19.32;67.72;101263.16;4973003;28;19928;-62
2022/10/18 05:38:56;;;;;;;;;;;;;;;19.36;67.30;101246.13;4974611;28;19929;-62
2022/10/18 05:41:22;;;;;;;;;;;;;;;19.42;67.22;101267.13;4974918;28;19914;-62
2022/10/18 05:43:47;;;;;;;;;;;;;;;19.43;67.30;101276.91;4974569;28;19929;-62
2022/10/18 05:46:12;;;;;;;;;;;;;;;19.45;67.09;101280.34;4974968;28;20399;-63
2022/10/18 05:48:38;;;;;;;;;;;;;;;19.27;67.25;101278.47;4974892;28;19977;-63
2022/10/18 05:51:03;;;;;;;;;;;;;;;19.25;67.64;101278.53;4974729;28;19922;-63
2022/10/18 05:53:29;;;;;;;;;;;;;;;19.28;67.30;101290.88;4973476;28;19930;-64
2022/10/18 05:55:54;;;;;;;;;;;;;;;19.53;66.42;101290.66;4974629;28;19918;-63
2022/10/18 05:58:19;;;;;;;;;;;;;;;19.58;66.37;101304.63;4974071;28;20028;-63
2022/10/18 06:00:45;;;;;;;;;;;;;;;19.56;65.92;101298.53;4974692;28;20305;-63
2022/10/18 06:03:10;;;;;;;;;;;;;;;19.62;65.89;101290.28;4974290;28;20290;-62
2022/10/18 06:05:35;;;;;;;;;;;;;;;19.67;65.85;101290.97;4974447;28;20381;-63
2022/10/18 06:08:01;;;;;;;;;;;;;;;19.42;66.13;101293.78;4974208;28;19945;-63
2022/10/18 06:10:26;;;;;;;;;;;;;;;19.53;66.02;101301.31;4974624;28;19918;-63
2022/10/18 06:12:51;;;;;;;;;;;;;;;19.20;66.55;101315.19;4974726;28;19929;-63
2022/10/18 06:15:17;;;;;;;;;;;;;;;19.33;66.59;101327.03;4971055;28;20438;-63
2022/10/18 06:17:42;;;;;;;;;;;;;;;19.25;66.99;101321.19;4971402;28;19922;-63
2022/10/18 06:20:07;;;;;;;;;;;;;;;19.34;66.40;101312.78;4974172;28;19984;-62
2022/10/18 06:22:33;;;;;;;;;;;;;;;19.96;64.24;101310.09;4974156;28;19957;-62
2022/10/18 06:24:58;;;;;;;;;;;;;;;19.81;65.05;101307.19;4977739;28;19953;-62
2022/10/18 06:27:23;;;;;;;;;;;;;;;19.79;64.87;101298.41;4974025;28;19969;-62
2022/10/18 06:29:49;;;;;;;;;;;;;;;19.79;65.09;101298.41;4974388;28;20395;-62
2022/10/18 06:32:14;;;;;;;;;;;;;;;19.83;64.80;101300.00;4973999;28;19922;-62
2022/10/18 06:34:39;;;;;;;;;;;;;;;19.87;64.81;101306.06;4973801;28;19929;-63
2022/10/18 06:37:05;;;;;;;;;;;;;;;19.75;65.08;101307.47;4973546;28;19918;-63
2022/10/18 06:39:30;;;;;;;;;;;;;;;19.79;65.04;101305.50;4974010;28;20378;-64
2022/10/18 06:41:55;;;;;;;;;;;;;;;19.87;64.88;101300.72;4974148;28;19922;-62
2022/10/18 06:44:20;;;;;;;;;;;;;;;19.86;64.83;101307.81;4973675;28;19996;-62
2022/10/18 06:46:47;;;;;;;;;;;;;;;19.91;64.87;101307.63;4974142;28;19918;-62
2022/10/18 06:49:15;;;;;;;;;;;;;;;19.99;64.62;101316.16;4973695;28;20429;-63
2022/10/18 06:51:41;;;;;;;;;;;;;;;20.31;64.25;101314.66;4974112;28;20404;-63
2022/10/18 06:54:06;;;;;;;;;;;;;;;20.22;63.78;101316.88;4974002;28;19922;-63
2022/10/18 06:56:32;;;;;;;;;;;;;;;20.06;64.48;101327.38;4973685;28;19922;-62
2022/10/18 06:58:57;;;;;;;;;;;;;;;20.03;64.59;101327.53;5002128;28;19918;-62
2022/10/18 07:01:22;;;;;;;;;;;;;;;20.00;64.75;101338.34;4973618;28;20004;-62
2022/10/18 07:03:50;;;;;;;;;;;;;;;20.01;65.04;101332.06;4973859;28;19918;-62
2022/10/18 07:06:16;;;;;;;;;;;;;;;20.02;64.99;101336.47;4973067;28;19925;-61
2022/10/18 07:08:42;;;;;;;;;;;;;;;19.98;64.95;101340.22;4974144;28;19918;-62
2022/10/18 07:11:12;;;;;;;;;;;;;;;19.98;65.13;101349.06;4976529;28;19918;-62
2022/10/18 07:13:38;;;;;;;;;;;;;;;20.01;65.28;101346.28;4976900;28;19922;-63
2022/10/18 07:16:04;;;;;;;;;;;;;;;19.92;65.30;101346.69;4977654;28;20328;-63
2022/10/18 07:18:29;;;;;;;;;;;;;;;19.99;65.49;101350.81;4977278;28;20382;-63
2022/10/18 07:20:55;;;;;;;;;;;;;;;20.09;65.17;101354.78;4977138;28;19962;-63
2022/10/18 07:23:22;;;;;;;;;;;;;;;20.22;65.06;101363.09;4977286;28;19922;-62
2022/10/18 07:25:47;;;;;;;;;;;;;;;20.31;64.57;101362.69;4977798;28;19918;-63
2022/10/18 07:28:13;;;;;;;;;;;;;;;20.40;64.29;101354.22;4977263;28;20431;-63
2022/10/18 07:30:38;;;;;;;;;;;;;;;20.45;64.05;101358.50;4977467;28;20001;-63
2022/10/18 07:33:03;;;;;;;;;;;;;;;20.48;63.76;101355.69;4964588;28;20001;-63
2022/10/18 07:35:29;;;;;;;;;;;;;;;20.40;64.01;101364.91;4976270;28;20645;-64
2022/10/18 07:37:54;;;;;;;;;;;;;;;20.39;64.23;101351.66;4977577;28;19953;-63
2022/10/18 07:40:19;;;;;;;;;;;;;;;20.41;63.98;101355.97;4975806;28;19926;-64
2022/10/18 07:42:45;;;;;;;;;;;;;;;20.37;64.23;101353.50;4977423;28;19928;-62
2022/10/18 07:45:11;;;;;;;;;;;;;;;20.42;64.14;101348.81;4976976;28;19917;-62
2022/10/18 07:47:36;;;;;;;;;;;;;;;20.59;63.81;101353.41;4975861;28;20294;-63
2022/10/18 07:50:02;;;;;;;;;;;;;;;20.67;63.10;101351.22;4977064;28;20365;-63
2022/10/18 07:52:27;;;;;;;;;;;;;;;20.62;63.40;101355.91;4977064;28;19977;-62
2022/10/18 07:54:52;;;;;;;;;;;;;;;20.60;63.35;101356.00;4977133;28;19976;-63
2022/10/18 07:57:17;;;;;;;;;;;;;;;20.54;63.62;101353.59;5004665;28;20016;-63
2022/10/18 07:59:45;;;;;;;;;;;;;;;20.50;63.94;101360.03;4974009;28;19922;-62
2022/10/18 08:02:10;;;;;;;;;;;;;;;20.56;63.92;101358.88;4976209;28;20008;-64
2022/10/18 08:04:35;;;;;;;;;;;;;;;20.53;64.00;101359.03;4974576;28;20025;-63
2022/10/18 08:07:01;;;;;;;;;;;;;;;20.57;63.73;101366.81;4977079;28;19922;-63
2022/10/18 08:09:26;;;;;;;;;;;;;;;20.52;64.24;101368.84;4976303;28;20361;-63
2022/10/18 08:11:51;;;;;;;;;;;;;;;20.52;63.97;101365.31;4976683;28;19922;-62
2022/10/18 08:14:17;;;;;;;;;;;;;;;20.53;64.04;101357.22;4975977;28;19990;-63
2022/10/18 08:16:42;;;;;;;;;;;;;;;20.54;64.12;101360.75;4976377;28;20008;-63
2022/10/18 08:19:07;;;;;;;;;;;;;;;20.52;64.07;101358.16;4975626;28;19922;-62
2022/10/18 08:21:33;;;;;;;;;;;;;;;20.52;64.07;101359.97;4976971;28;19921;-63
2022/10/18 08:23:58;;;;;;;;;;;;;;;20.46;64.36;101344.19;4977019;28;19922;-62
2022/10/18 08:26:23;;;;;;;;;;;;;;;20.49;64.46;101346.75;4976332;28;20421;-62
2022/10/18 08:28:49;;;;;;;;;;;;;;;20.51;64.24;101339.56;4976586;28;19922;-62
2022/10/18 08:31:19;;;;;;;;;;;;;;;20.45;64.46;101337.13;4976186;28;19918;-63
2022/10/18 08:33:44;;;;;;;;;;;;;;;20.58;64.08;101327.63;4976234;28;19918;-63
2022/10/18 08:36:11;;;;;;;;;;;;;;;20.58;64.07;101330.28;4976267;28;20009;-63
2022/10/18 08:38:37;;;;;;;;;;;;;;;20.61;63.78;101331.00;4975033;28;20378;-63
2022/10/18 08:41:22;;;;;;;;;;;;;;;20.63;63.88;101320.28;4975760;28;19918;-63
2022/10/18 08:43:56;;;;;;;;;;;;;;;20.68;63.75;101320.91;4976069;28;19918;-63
2022/10/18 08:46:21;;;;;;;;;;;;;;;20.91;62.97;101323.31;4974602;28;19929;-64
2022/10/18 08:48:49;;;;;;;;;;;;;;;20.74;63.57;101325.06;4975885;28;19922;-63
2022/10/18 08:51:25;;;;;;;;;;;;;;;20.88;63.18;101334.13;4975400;28;19918;-64
2022/10/18 08:53:58;;;;;;;;;;;;;;;20.93;62.88;101336.59;4972394;28;19925;-69
2022/10/18 08:56:24;;;;;;;;;;;;;;;20.97;63.01;101331.94;4974965;28;19925;-65
2022/10/18 08:58:50;;;;;;;;;;;;;;;20.92;62.79;101335.72;4975718;28;19922;-65
2022/10/18 09:01:15;;;;;;;;;;;;;;;20.92;62.67;101335.72;4975106;28;19929;-64
2022/10/18 09:04:06;;;;;;;;;;;;;;;20.95;62.96;101339.19;4974549;28;19925;-63
2022/10/18 09:06:34;;;;;;;;;;;;;;;21.32;61.98;101336.41;4976427;28;19925;-66
2022/10/18 09:09:15;;;;;;;;;;;;;;;21.44;61.35;101323.38;4971417;28;20004;-64
2022/10/18 09:11:59;;;;;;;;;;;;;;;21.34;61.56;101320.28;4975515;28;19914;-64
2022/10/18 09:14:30;;;;;;;;;;;;;;;21.46;61.25;101321.44;4974746;28;20013;-64
2022/10/18 09:17:09;;;;;;;;;;;;;;;21.49;60.78;101329.31;4975130;28;19918;-64
2022/10/18 09:19:38;;;;;;;;;;;;;;;21.55;60.83;101329.03;4974825;28;20357;-66
2022/10/18 09:22:03;;;;;;;;;;;;;;;;;;4975405;28;19965;-64
2022/10/18 09:24:47;;;;;;;;;;;;;;;21.75;60.21;101314.59;4974801;28;19961;-64
2022/10/18 09:27:16;;;;;;;;;;;;;;;22.03;59.90;101309.47;4974137;28;19956;-64
2022/10/18 09:29:47;;;;;;;;;;;;;;;22.13;59.66;101309.84;4974804;28;19998;-65
2022/10/18 09:32:22;;;;;;;;;;;;;;;22.25;59.20;101317.19;4974255;28;20281;-65
2022/10/18 09:35:11;;;;;;;;;;;;;;;22.32;59.01;101318.59;4975562;28;20398;-66
2022/10/18 09:37:37;;;;;;;;;;;;;;;22.35;58.49;101320.25;4969593;28;19918;-64
2022/10/18 09:40:14;;;;;;;;;;;;;;;22.29;57.83;101325.91;4974611;28;20397;-65
2022/10/18 09:42:41;;;;;;;;;;;;;;;22.44;57.99;101314.34;4972535;28;20300;-65
2022/10/18 09:45:22;;;;;;;;;;;;;;;22.42;57.95;101315.38;4974871;28;20053;-64
2022/10/18 09:47:57;;;;;;;;;;;;;;;22.18;57.42;101321.16;4974985;28;20409;-63
2022/10/18 09:50:28;;;;;;;;;;;;;;;22.24;58.26;101311.94;4974233;28;19922;-65
2022/10/18 09:53:10;;;;;;;;;;;;;;;22.11;58.05;101317.06;4973980;28;19918;-64
2022/10/18 09:55:39;;;;;;;;;;;;;;;22.10;58.32;101316.22;4976334;28;19926;-66
2022/10/18 09:58:06;;;;;;;;;;;;;;;22.04;58.35;101331.72;4975560;28;20009;-64
2022/10/18 10:00:35;;;;;;;;;;;;;;;21.94;58.60;101327.81;4974225;28;20054;-64
2022/10/18 10:03:01;;;;;;;;;;;;;;;21.90;58.70;101319.09;4974633;28;19918;-65
2022/10/18 10:05:26;;;;;;;;;;;;;;;21.92;58.63;101316.34;4974592;28;19925;-63
2022/10/18 10:07:57;;;;;;;;;;;;;;;21.89;58.56;101314.69;4974145;28;19922;-64
2022/10/18 10:10:24;;;;;;;;;;;;;;;21.94;58.68;101311.75;4975459;28;19917;-64
2022/10/18 10:13:06;;;;;;;;;;;;;;;21.72;58.80;101304.91;4975478;28;19921;-65
2022/10/18 10:15:32;;;;;;;;;;;;;;;21.84;58.99;101306.06;4973564;28;19914;-64
2022/10/18 10:17:57;;;;;;;;;;;;;;;21.50;59.47;101312.31;5004708;28;19921;-65
2022/10/18 10:20:40;;;;;;;;;;;;;;;21.52;59.29;101307.78;4973939;28;19914;-65
2022/10/18 10:23:07;;;;;;;;;;;;;;;21.55;59.42;101299.59;4974790;28;19926;-65
2022/10/18 10:25:37;;;;;;;;;;;;;;;21.55;59.55;101296.94;4974897;28;20024;-65
2022/10/18 10:28:05;;;;;;;;;;;;;;;21.73;59.01;101287.91;4974768;28;19921;-64
2022/10/18 10:30:32;;;;;;;;;;;;;;;21.72;58.56;101288.00;4985947;28;20445;-64
2022/10/18 10:32:57;;;;;;;;;;;;;;;21.90;58.64;101286.97;4993044;28;19972;-64
2022/10/18 10:35:30;;;;;;;;;;;;;;;21.82;58.07;101286.53;4993216;28;19957;-65
2022/10/18 10:37:56;;;;;;;;;;;;;;;21.73;57.82;101287.03;4994280;28;19914;-63
2022/10/18 10:40:26;;;;;;;;;;;;;;;21.80;58.25;101275.94;4988090;28;20361;-65
2022/10/18 10:42:51;;;;;;;;;;;;;;;21.47;57.79;101281.28;4973106;28;19914;-64
2022/10/18 10:45:16;;;;;;;;;;;;;;;21.80;58.21;101273.25;4980162;28;20357;-64
2022/10/18 10:47:42;;;;;;;;;;;;;;;21.94;57.83;101268.97;4997953;28;19933;-64
2022/10/18 10:50:11;;;;;;;;;;;;;;;22.01;56.49;101276.56;4994622;28;19928;-63
2022/10/18 10:52:38;;;;;;;;;;;;;;;21.67;57.45;101274.03;4996361;28;19928;-66
2022/10/18 10:55:05;;;;;;;;;;;;;;;21.86;57.38;101270.25;4998255;28;19913;-66
2022/10/18 10:57:31;;;;;;;;;;;;;;;21.84;57.15;101257.91;4997551;28;19917;-64
2022/10/18 10:59:58;;;;;;;;;;;;;;;21.88;57.24;101263.00;4989938;28;19921;-63
2022/10/18 11:02:30;;;;;;;;;;;;;;;21.62;57.74;101272.47;4978411;28;19922;-64
2022/10/18 11:04:56;;;;;;;;;;;;;;;21.20;57.83;101275.53;4978558;28;19921;-64
2022/10/18 11:07:24;;;;;;;;;;;;;;;21.24;57.74;101266.41;4978119;28;20373;-64
2022/10/18 11:09:50;;;;;;;;;;;;;;;21.24;58.09;101277.13;4977858;28;19937;-66
2022/10/18 11:12:19;;;;;;;;;;;;;;;21.03;58.43;101262.19;4977750;28;20362;-64
2022/10/18 11:14:48;;;;;;;;;;;;;;;21.11;59.00;101255.50;4978017;28;19977;-65
2022/10/18 11:17:16;;;;;;;;;;;;;;;21.32;58.46;101248.22;4977993;28;20028;-65
2022/10/18 11:19:57;;;;;;;;;;;;;;;21.53;58.02;101240.84;4978100;28;20013;-65
2022/10/18 11:22:24;;;;;;;;;;;;;;;21.52;57.58;101235.59;4978198;28;19925;-65
2022/10/18 11:24:49;;;;;;;;;;;;;;;21.51;57.22;101232.06;4977777;28;19917;-65
2022/10/18 11:27:21;;;;;;;;;;;;;;;21.42;57.49;101237.00;4977449;28;19965;-64
2022/10/18 11:29:52;;;;;;;;;;;;;;;21.19;57.99;101225.72;4978056;28;20374;-64
2022/10/18 11:32:37;;;;;;;;;;;;;;;21.09;58.31;101232.47;4978062;28;20289;-64
2022/10/18 11:35:25;;;;;;;;;;;;;;;20.91;58.72;101245.84;4977636;28;19918;-65
2022/10/18 11:38:13;;;;;;;;;;;;;;;20.81;59.20;101241.03;4977558;28;19997;-65
2022/10/18 11:40:38;;;;;;;;;;;;;;;21.05;59.09;101245.13;4969531;28;20004;-65
2022/10/18 11:43:15;;;;;;;;;;;;;;;21.19;58.60;101247.09;4975486;28;20779;-65
2022/10/18 11:45:59;;;;;;;;;;;;;;;21.75;57.18;101240.56;4976809;28;19918;-65
2022/10/18 11:48:43;;;;;;;;;;;;;;;21.27;58.26;101239.53;4976516;28;19925;-65
2022/10/18 11:51:11;;;;;;;;;;;;;;;21.07;58.57;101232.56;4977126;28;19914;-65
2022/10/18 11:53:39;;;;;;;;;;;;;;;21.19;58.49;101224.84;4978283;28;19921;-64
2022/10/18 11:56:13;;;;;;;;;;;;;;;21.12;58.59;101235.00;4995902;28;19924;-65
2022/10/18 11:58:41;;;;;;;;;;;;;;;20.91;59.21;101219.13;4996117;28;19972;-65
2022/10/18 12:01:25;;;;;;;;;;;;;;;20.88;58.92;101210.41;4996302;28;19921;-65
2022/10/18 12:04:03;;;;;;;;;;;;;;;20.55;59.95;101213.00;4996665;28;19914;-65
2022/10/18 12:06:38;;;;;;;;;;;;;;;20.80;59.56;101207.28;4996720;28;19921;-65
2022/10/18 12:09:18;;;;;;;;;;;;;;;20.82;59.50;101211.56;4997106;28;20004;-65
2022/10/18 12:11:49;;;;;;;;;;;;;;;20.86;59.40;101213.16;4996809;28;19960;-65
2022/10/18 12:14:24;;;;;;;;;;;;;;;20.96;59.50;101202.88;4996896;28;19921;-66
2022/10/18 12:16:50;;;;;;;;;;;;;;;20.86;59.41;101194.44;4996718;28;19913;-65
2022/10/18 12:19:24;;;;;;;;;;;;;;;20.80;59.52;101186.78;4996752;28;19914;-65
2022/10/18 12:21:50;;;;;;;;;;;;;;;20.85;59.56;101184.72;4996226;28;20000;-65
2022/10/18 12:24:19;;;;;;;;;;;;;;;20.78;59.47;101185.09;4995510;28;20021;-66
2022/10/18 12:26:47;;;;;;;;;;;;;;;20.76;59.62;101190.53;4995161;28;19914;-66
2022/10/18 12:29:12;;;;;;;;;;;;;;;20.87;59.33;101190.84;4996278;28;19984;-65
2022/10/18 12:31:41;;;;;;;;;;;;;;;21.10;58.87;101194.13;4996475;28;20251;-65
2022/10/18 12:34:21;;;;;;;;;;;;;;;21.09;58.79;101197.75;4996406;28;20369;-66
2022/10/18 12:37:05;;;;;;;;;;;;;;;20.95;59.00;101184.25;4993292;28;19946;-64
2022/10/18 12:39:50;;;;;;;;;;;;;;;20.78;59.40;101182.44;4976602;28;19914;-64
2022/10/18 12:42:23;;;;;;;;;;;;;;;20.76;59.17;101171.00;4976403;28;19961;-65
2022/10/18 12:44:48;;;;;;;;;;;;;;;20.75;59.36;101166.59;4976682;28;19922;-65